createdAt,value
2018-01-26T00:00:13.215Z,19.67
2018-01-26T00:02:39.326Z,22.27
2018-01-26T00:05:05.414Z,19.97
2018-01-26T00:07:31.514Z,22.73
2018-01-26T00:09:57.760Z,25.50
2018-01-26T00:12:23.947Z,22.93
2018-01-26T00:14:50.083Z,23.10
2018-01-26T00:17:16.240Z,21.50
2018-01-26T00:19:42.401Z,19.67
2018-01-26T00:22:08.544Z,22.10
2018-01-26T00:24:34.667Z,24.40
2018-01-26T00:27:00.856Z,15.00
2018-01-26T00:29:27.007Z,23.47
2018-01-26T00:31:53.152Z,20.37
2018-01-26T00:34:19.248Z,30.37
2018-01-26T00:36:45.356Z,23.20
2018-01-26T00:39:11.523Z,24.00
2018-01-26T00:41:37.727Z,23.37
2018-01-26T00:44:03.822Z,28.73
2018-01-26T00:46:29.986Z,26.57
2018-01-26T00:48:56.176Z,28.10
2018-01-26T00:51:22.481Z,30.73
2018-01-26T00:53:48.619Z,29.87
2018-01-26T00:56:14.738Z,25.80
2018-01-26T00:58:40.898Z,30.13
2018-01-26T01:01:07.024Z,28.10
2018-01-26T01:03:33.608Z,32.67
2018-01-26T01:05:59.752Z,26.97
2018-01-26T01:08:26.127Z,25.33
2018-01-26T01:10:52.293Z,28.83
2018-01-26T01:13:18.400Z,27.43
2018-01-26T01:15:44.622Z,28.63
2018-01-26T01:18:10.871Z,27.33
2018-01-26T01:20:37.000Z,27.23
2018-01-26T01:23:03.132Z,27.03
2018-01-26T01:25:30.662Z,27.87
2018-01-26T01:27:56.834Z,32.50
2018-01-26T01:30:22.960Z,25.67
2018-01-26T01:32:49.716Z,31.23
2018-01-26T01:35:15.815Z,30.97
2018-01-26T01:37:41.924Z,35.47
2018-01-26T01:40:08.190Z,33.17
2018-01-26T01:42:34.323Z,32.77
2018-01-26T01:45:00.522Z,30.80
2018-01-26T01:47:26.642Z,25.70
2018-01-26T01:49:52.932Z,25.53
2018-01-26T01:52:19.046Z,23.67
2018-01-26T01:54:45.390Z,24.00
2018-01-26T01:57:11.486Z,21.53
2018-01-26T01:59:37.696Z,24.27
2018-01-26T02:02:03.860Z,31.90
2018-01-26T02:04:30.981Z,28.47
2018-01-26T02:06:57.097Z,28.73
2018-01-26T02:09:24.164Z,24.00
2018-01-26T02:11:50.484Z,29.07
2018-01-26T02:14:16.623Z,26.97
2018-01-26T02:16:42.748Z,31.43
2018-01-26T02:19:09.083Z,33.03
2018-01-26T02:21:35.210Z,36.30
2018-01-26T02:24:01.321Z,34.20
2018-01-26T02:26:27.457Z,35.67
2018-01-26T02:29:00.571Z,32.23
2018-01-26T02:31:26.801Z,36.43
2018-01-26T02:33:52.927Z,39.67
2018-01-26T02:36:19.058Z,39.03
2018-01-26T02:38:45.237Z,29.60
2018-01-26T02:41:11.429Z,25.30
2018-01-26T02:43:37.547Z,28.03
2018-01-26T02:46:03.668Z,31.00
2018-01-26T02:48:29.833Z,40.33
2018-01-26T02:50:56.014Z,35.90
2018-01-26T02:53:22.285Z,32.83
2018-01-26T02:55:48.493Z,32.47
2018-01-26T02:58:14.682Z,32.00
2018-01-26T03:00:40.838Z,32.17
2018-01-26T03:03:06.955Z,31.37
2018-01-26T03:05:33.097Z,26.00
2018-01-26T03:07:59.192Z,29.73
2018-01-26T03:10:25.388Z,23.47
2018-01-26T03:12:51.473Z,29.83
2018-01-26T03:15:17.798Z,26.47
2018-01-26T03:17:43.961Z,28.47
2018-01-26T03:20:10.137Z,27.67
2018-01-26T03:22:36.250Z,32.37
2018-01-26T03:25:02.390Z,29.17
2018-01-26T03:27:35.537Z,30.37
2018-01-26T03:30:01.832Z,27.93
2018-01-26T03:32:27.971Z,29.47
2018-01-26T03:34:54.124Z,25.53
2018-01-26T03:37:20.433Z,28.30
2018-01-26T03:39:46.599Z,24.20
2018-01-26T03:42:13.357Z,29.47
2018-01-26T03:44:39.485Z,31.53
2018-01-26T03:47:05.640Z,30.33
2018-01-26T03:49:31.785Z,32.40
2018-01-26T03:51:57.936Z,24.40
2018-01-26T03:54:24.123Z,32.03
2018-01-26T03:56:50.278Z,36.00
2018-01-26T03:59:17.559Z,36.17
2018-01-26T04:01:43.732Z,39.90
2018-01-26T04:04:09.829Z,42.23
2018-01-26T04:06:36.060Z,33.43
2018-01-26T04:09:02.502Z,42.87
2018-01-26T04:11:30.508Z,39.37
2018-01-26T04:13:56.730Z,29.33
2018-01-26T04:16:24.298Z,29.40
2018-01-26T04:18:50.509Z,39.87
2018-01-26T04:21:16.802Z,34.93
2018-01-26T04:23:43.000Z,40.53
2018-01-26T04:26:09.351Z,38.77
2018-01-26T04:28:35.725Z,34.50
2018-01-26T04:31:02.005Z,28.87
2018-01-26T04:33:28.147Z,33.20
2018-01-26T04:35:54.359Z,35.20
2018-01-26T04:38:20.612Z,40.13
2018-01-26T04:40:46.932Z,41.93
2018-01-26T04:43:13.155Z,34.10
2018-01-26T04:45:39.348Z,36.27
2018-01-26T04:48:05.608Z,26.10
2018-01-26T04:50:31.839Z,34.97
2018-01-26T04:52:57.965Z,38.87
2018-01-26T04:55:24.394Z,30.93
2018-01-26T04:57:50.691Z,36.90
2018-01-26T05:00:16.992Z,35.77
2018-01-26T05:02:43.137Z,41.40
2018-01-26T05:05:09.322Z,40.23
2018-01-26T05:07:35.593Z,29.10
2018-01-26T05:10:01.797Z,46.40
2018-01-26T05:12:27.993Z,38.97
2018-01-26T05:14:54.248Z,38.73
2018-01-26T05:17:21.518Z,50.13
2018-01-26T05:19:47.733Z,44.97
2018-01-26T05:22:13.880Z,41.40
2018-01-26T05:24:40.106Z,38.63
2018-01-26T05:27:06.348Z,33.27
2018-01-26T05:29:32.607Z,38.43
2018-01-26T05:31:58.851Z,42.03
2018-01-26T05:34:25.014Z,45.97
2018-01-26T05:36:51.226Z,41.53
2018-01-26T05:39:17.453Z,42.23
2018-01-26T05:41:43.730Z,50.00
2018-01-26T05:44:09.961Z,43.90
2018-01-26T05:46:36.126Z,34.57
2018-01-26T05:49:02.337Z,37.27
2018-01-26T05:51:28.543Z,44.97
2018-01-26T05:53:54.706Z,34.10
2018-01-26T05:56:21.047Z,43.40
2018-01-26T05:58:49.880Z,47.13
2018-01-26T06:01:16.127Z,48.23
2018-01-26T06:03:42.325Z,42.67
2018-01-26T06:06:08.533Z,53.17
2018-01-26T06:08:34.755Z,56.47
2018-01-26T06:11:01.025Z,56.87
2018-01-26T06:13:27.161Z,49.90
2018-01-26T06:15:53.398Z,73.43
2018-01-26T06:18:19.567Z,77.37
2018-01-26T06:20:46.026Z,80.23
2018-01-26T06:23:12.752Z,67.20
2018-01-26T06:25:39.136Z,71.37
2018-01-26T06:28:05.330Z,51.03
2018-01-26T06:30:31.581Z,66.53
2018-01-26T06:32:57.874Z,47.23
2018-01-26T06:35:24.051Z,45.93
2018-01-26T06:37:50.272Z,46.87
2018-01-26T06:40:16.466Z,45.27
2018-01-26T06:42:42.614Z,42.83
2018-01-26T06:45:08.812Z,38.97
2018-01-26T06:47:34.998Z,48.00
2018-01-26T06:50:01.216Z,39.17
2018-01-26T06:52:27.363Z,42.20
2018-01-26T06:54:53.574Z,42.13
2018-01-26T06:57:19.917Z,43.73
2018-01-26T06:59:46.213Z,45.03
2018-01-26T07:02:12.365Z,55.90
2018-01-26T07:04:38.520Z,51.37
2018-01-26T07:07:04.852Z,54.93
2018-01-26T07:09:31.055Z,48.03
2018-01-26T07:11:57.259Z,47.53
2018-01-26T07:14:23.628Z,63.27
2018-01-26T07:16:49.927Z,65.33
2018-01-26T07:19:16.089Z,64.30
2018-01-26T07:21:42.355Z,66.43
2018-01-26T07:24:08.499Z,65.93
2018-01-26T07:26:34.700Z,63.47
2018-01-26T07:29:00.866Z,69.40
2018-01-26T07:31:27.105Z,55.00
2018-01-26T07:33:53.259Z,61.23
2018-01-26T07:36:20.888Z,63.30
2018-01-26T07:38:47.068Z,54.13
2018-01-26T07:41:13.400Z,62.57
2018-01-26T07:43:39.545Z,54.23
2018-01-26T07:46:05.708Z,58.33
2018-01-26T07:48:31.878Z,51.90
2018-01-26T07:50:58.185Z,55.43
2018-01-26T07:53:24.432Z,49.07
2018-01-26T07:55:50.687Z,51.03
2018-01-26T07:58:18.463Z,48.03
2018-01-26T08:00:44.708Z,58.33
2018-01-26T08:03:11.881Z,44.97
2018-01-26T08:05:38.045Z,50.80
2018-01-26T08:08:04.308Z,50.63
2018-01-26T08:10:30.545Z,47.27
2018-01-26T08:12:56.862Z,54.07
2018-01-26T08:15:23.010Z,64.17
2018-01-26T08:17:49.152Z,56.87
2018-01-26T08:20:15.353Z,54.20
2018-01-26T08:22:41.631Z,65.63
2018-01-26T08:25:07.872Z,65.90
2018-01-26T08:27:34.050Z,65.23
2018-01-26T08:30:00.335Z,68.57
2018-01-26T08:32:26.471Z,67.23
2018-01-26T08:34:52.617Z,71.20
2018-01-26T08:37:18.861Z,63.17
2018-01-26T08:39:45.062Z,75.97
2018-01-26T08:42:11.212Z,91.83
2018-01-26T08:44:37.397Z,89.27
2018-01-26T08:47:03.573Z,86.03
2018-01-26T08:49:29.765Z,90.03
2018-01-26T08:51:56.013Z,83.93
2018-01-26T08:54:25.007Z,71.63
2018-01-26T08:56:51.836Z,82.20
2018-01-26T08:59:19.091Z,62.70
2018-01-26T09:01:45.375Z,68.23
2018-01-26T09:04:12.088Z,67.90
2018-01-26T09:06:38.289Z,60.77
2018-01-26T09:09:04.515Z,56.13
2018-01-26T09:11:30.771Z,58.67
2018-01-26T09:13:56.933Z,57.67
2018-01-26T09:16:23.165Z,54.17
2018-01-26T09:18:49.409Z,58.13
2018-01-26T09:21:15.579Z,55.33
2018-01-26T09:23:41.707Z,55.00
2018-01-26T09:26:07.977Z,57.30
2018-01-26T09:28:34.164Z,50.50
2018-01-26T09:31:00.326Z,48.83
2018-01-26T09:33:26.575Z,45.90
2018-01-26T09:35:52.801Z,48.63
2018-01-26T09:38:18.942Z,43.10
2018-01-26T09:40:45.116Z,43.00
2018-01-26T09:43:11.299Z,43.57
2018-01-26T09:45:37.572Z,42.30
2018-01-26T09:48:03.753Z,43.73
2018-01-26T09:50:30.053Z,45.77
2018-01-26T09:52:56.248Z,38.47
2018-01-26T09:55:22.525Z,39.07
2018-01-26T09:57:48.936Z,37.60
2018-01-26T10:00:15.205Z,38.10
2018-01-26T10:02:41.504Z,38.40
2018-01-26T10:05:07.740Z,30.00
2018-01-26T10:07:33.956Z,32.40
2018-01-26T10:10:00.210Z,31.33
2018-01-26T10:12:26.422Z,33.73
2018-01-26T10:14:52.602Z,32.67
2018-01-26T10:17:18.890Z,28.33
2018-01-26T10:19:47.958Z,29.43
2018-01-26T10:22:14.197Z,32.47
2018-01-26T10:24:40.515Z,34.23
2018-01-26T10:27:06.802Z,29.37
2018-01-26T10:29:33.018Z,29.17
2018-01-26T10:31:59.279Z,24.33
2018-01-26T10:34:25.478Z,28.80
2018-01-26T10:36:51.745Z,26.90
2018-01-26T10:39:17.914Z,27.57
2018-01-26T10:41:44.117Z,34.43
2018-01-26T10:44:10.342Z,26.83
2018-01-26T10:46:36.770Z,31.60
2018-01-26T10:49:03.008Z,26.73
2018-01-26T10:51:29.236Z,25.90
2018-01-26T10:53:55.448Z,30.60
2018-01-26T10:56:21.769Z,24.83
2018-01-26T10:58:48.327Z,28.97
2018-01-26T11:01:14.477Z,29.03
2018-01-26T11:03:41.382Z,33.70
2018-01-26T11:06:07.666Z,25.80
2018-01-26T11:08:34.283Z,24.23
2018-01-26T11:11:00.810Z,27.93
2018-01-26T11:13:27.063Z,28.40
2018-01-26T11:15:53.374Z,27.40
2018-01-26T11:18:19.646Z,27.60
2018-01-26T11:20:45.884Z,33.33
2018-01-26T11:23:12.120Z,30.17
2018-01-26T11:25:38.487Z,29.50
2018-01-26T11:28:04.871Z,31.50
2018-01-26T11:30:31.870Z,25.67
2018-01-26T11:32:58.041Z,31.23
2018-01-26T11:35:24.255Z,24.70
2018-01-26T11:37:50.785Z,29.47
2018-01-26T11:40:16.978Z,30.90
2018-01-26T11:42:43.193Z,31.00
2018-01-26T11:45:09.491Z,26.07
2018-01-26T11:47:35.882Z,25.90
2018-01-26T11:50:02.227Z,30.83
2018-01-26T11:52:28.472Z,29.93
2018-01-26T11:54:54.817Z,26.67
2018-01-26T11:57:21.760Z,25.47
2018-01-26T11:59:47.982Z,29.57
2018-01-26T12:02:14.209Z,28.17
2018-01-26T12:04:41.423Z,25.50
2018-01-26T12:07:08.917Z,27.40
2018-01-26T12:09:35.498Z,28.50
2018-01-26T12:12:02.577Z,28.27
2018-01-26T12:14:29.150Z,27.83
2018-01-26T12:16:55.591Z,27.07
2018-01-26T12:19:21.959Z,26.00
2018-01-26T12:21:48.314Z,26.30
2018-01-26T12:24:14.682Z,19.63
2018-01-26T12:26:41.216Z,28.07
2018-01-26T12:29:08.218Z,20.97
2018-01-26T12:31:34.590Z,23.37
2018-01-26T12:34:01.051Z,22.10
2018-01-26T12:36:27.397Z,24.07
2018-01-26T12:38:55.377Z,27.83
2018-01-26T12:41:22.251Z,27.33
2018-01-26T12:43:49.407Z,21.37
2018-01-26T12:46:17.307Z,24.77
2018-01-26T12:48:44.409Z,25.90
2018-01-26T12:51:12.175Z,24.57
2018-01-26T12:53:38.845Z,28.73
2018-01-26T12:56:05.239Z,24.47
2018-01-26T12:58:38.349Z,25.67
2018-01-26T13:01:04.724Z,22.77
2018-01-26T13:03:31.176Z,23.40
2018-01-26T13:05:57.479Z,22.50
2018-01-26T13:08:23.733Z,22.67
2018-01-26T13:10:49.850Z,24.87
2018-01-26T13:13:16.017Z,26.37
2018-01-26T13:15:42.169Z,22.13
2018-01-26T13:18:08.297Z,26.97
2018-01-26T13:20:34.432Z,24.97
2018-01-26T13:23:00.607Z,26.53
2018-01-26T13:25:27.494Z,25.70
2018-01-26T13:27:55.700Z,28.03
2018-01-26T13:30:21.967Z,19.63
2018-01-26T13:32:50.629Z,19.90
2018-01-26T13:35:17.080Z,19.67
2018-01-26T13:37:43.270Z,18.83
2018-01-26T13:40:09.442Z,19.57
2018-01-26T13:42:35.637Z,18.33
2018-01-26T13:45:01.854Z,16.53
2018-01-26T13:47:30.332Z,16.00
2018-01-26T13:49:56.588Z,11.60
2018-01-26T13:52:22.728Z,13.50
2018-01-26T13:54:48.968Z,13.70
2018-01-26T13:57:15.333Z,9.97
2018-01-26T13:59:41.523Z,7.90
2018-01-26T14:02:07.677Z,11.53
2018-01-26T14:04:33.906Z,8.13
2018-01-26T14:07:00.114Z,7.87
2018-01-26T14:09:29.026Z,8.67
2018-01-26T14:11:55.229Z,5.53
2018-01-26T14:14:21.382Z,7.63
2018-01-26T14:16:47.576Z,6.60
2018-01-26T14:19:13.758Z,3.17
2018-01-26T14:21:39.956Z,10.50
2018-01-26T14:24:06.116Z,9.67
2018-01-26T14:26:32.674Z,7.50
2018-01-26T14:28:58.990Z,8.97
2018-01-26T14:31:25.398Z,5.30
2018-01-26T14:33:51.541Z,7.37
2018-01-26T14:36:17.767Z,10.97
2018-01-26T14:38:44.067Z,9.10
2018-01-26T14:41:10.309Z,8.63
2018-01-26T14:43:37.103Z,4.60
2018-01-26T14:46:03.277Z,6.60
2018-01-26T14:48:29.488Z,8.47
2018-01-26T14:50:55.680Z,7.67
2018-01-26T14:53:21.883Z,5.37
2018-01-26T14:55:48.174Z,7.50
2018-01-26T14:58:14.494Z,10.80
2018-01-26T15:00:40.652Z,6.70
2018-01-26T15:03:06.848Z,6.90
2018-01-26T15:05:33.158Z,8.30
2018-01-26T15:07:59.431Z,8.50
2018-01-26T15:10:25.611Z,6.77
2018-01-26T15:12:51.943Z,8.73
2018-01-26T15:15:18.220Z,7.40
2018-01-26T15:17:44.334Z,9.70
2018-01-26T15:20:10.515Z,7.03
2018-01-26T15:22:36.751Z,7.10
2018-01-26T15:25:03.014Z,8.33
2018-01-26T15:27:29.248Z,10.57
2018-01-26T15:29:55.425Z,9.07
2018-01-26T15:32:21.696Z,6.60
2018-01-26T15:34:47.991Z,9.23
2018-01-26T15:37:14.235Z,8.40
2018-01-26T15:39:40.494Z,8.60
2018-01-26T15:42:06.651Z,9.57
2018-01-26T15:44:32.905Z,9.60
2018-01-26T15:46:59.607Z,13.30
2018-01-26T15:49:25.724Z,8.50
2018-01-26T15:51:51.885Z,11.00
2018-01-26T15:54:18.027Z,5.90
2018-01-26T15:56:51.365Z,11.33
2018-01-26T15:59:17.592Z,9.67
2018-01-26T16:01:43.730Z,9.27
2018-01-26T16:04:09.903Z,9.97
2018-01-26T16:06:36.135Z,8.03
2018-01-26T16:09:02.347Z,8.27
2018-01-26T16:11:28.533Z,9.37
2018-01-26T16:13:54.656Z,8.53
2018-01-26T16:16:20.858Z,10.17
2018-01-26T16:18:47.480Z,8.43
2018-01-26T16:21:13.761Z,11.00
2018-01-26T16:23:40.195Z,13.63
2018-01-26T16:26:06.486Z,13.23
2018-01-26T16:28:32.656Z,8.73
2018-01-26T16:30:58.968Z,10.27
2018-01-26T16:33:26.495Z,9.60
2018-01-26T16:35:52.753Z,9.47
2018-01-26T16:38:18.910Z,10.07
2018-01-26T16:40:45.166Z,13.33
2018-01-26T16:43:11.334Z,14.23
2018-01-26T16:45:37.587Z,10.83
2018-01-26T16:48:03.787Z,11.83
2018-01-26T16:50:29.945Z,12.40
2018-01-26T16:52:56.155Z,9.83
2018-01-26T16:55:22.497Z,16.47
2018-01-26T16:57:48.703Z,15.60
2018-01-26T17:00:15.007Z,16.00
2018-01-26T17:02:41.203Z,13.77
2018-01-26T17:05:07.390Z,11.20
2018-01-26T17:07:33.773Z,13.93
2018-01-26T17:09:59.955Z,15.57
2018-01-26T17:12:26.153Z,13.20
2018-01-26T17:14:52.351Z,11.63
2018-01-26T17:17:18.637Z,11.97
2018-01-26T17:19:44.844Z,10.57
2018-01-26T17:22:11.014Z,13.27
2018-01-26T17:24:37.180Z,13.97
2018-01-26T17:27:03.613Z,14.93
2018-01-26T17:29:29.756Z,15.57
2018-01-26T17:31:56.545Z,14.33
2018-01-26T17:34:22.694Z,14.10
2018-01-26T17:36:48.885Z,13.20
2018-01-26T17:39:16.247Z,9.07
2018-01-26T17:41:42.892Z,15.07
2018-01-26T17:44:09.200Z,14.43
2018-01-26T17:46:35.440Z,17.63
2018-01-26T17:49:01.682Z,21.07
2018-01-26T17:51:27.935Z,14.57
2018-01-26T17:53:54.189Z,15.90
2018-01-26T17:56:20.508Z,16.50
2018-01-26T17:58:46.732Z,15.77
2018-01-26T18:01:12.967Z,11.50
2018-01-26T18:03:39.302Z,14.50
2018-01-26T18:06:05.605Z,15.23
2018-01-26T18:08:31.892Z,14.13
2018-01-26T18:10:58.175Z,16.37
2018-01-26T18:13:24.400Z,13.33
2018-01-26T18:15:50.681Z,19.20
2018-01-26T18:18:16.909Z,13.53
2018-01-26T18:20:43.129Z,19.17
2018-01-26T18:23:09.392Z,15.60
2018-01-26T18:25:35.656Z,15.60
2018-01-26T18:28:02.081Z,19.50
2018-01-26T18:30:28.254Z,14.40
2018-01-26T18:32:54.442Z,17.67
2018-01-26T18:35:20.933Z,13.43
2018-01-26T18:37:47.139Z,12.30
2018-01-26T18:40:13.401Z,15.50
2018-01-26T18:42:39.572Z,16.57
2018-01-26T18:45:05.721Z,14.30
2018-01-26T18:47:32.026Z,12.47
2018-01-26T18:49:58.245Z,14.83
2018-01-26T18:52:24.529Z,15.97
2018-01-26T18:54:50.975Z,16.67
2018-01-26T18:57:17.237Z,14.70
2018-01-26T18:59:43.439Z,17.60
2018-01-26T19:02:09.579Z,10.00
2018-01-26T19:04:35.770Z,17.47
2018-01-26T19:07:02.133Z,16.40
2018-01-26T19:09:29.346Z,15.93
2018-01-26T19:11:58.836Z,15.43
2018-01-26T19:14:25.329Z,17.00
2018-01-26T19:16:53.844Z,16.87
2018-01-26T19:19:20.177Z,20.50
2018-01-26T19:21:46.416Z,21.07
2018-01-26T19:24:12.749Z,14.27
2018-01-26T19:26:39.149Z,20.73
2018-01-26T19:29:06.181Z,17.67
2018-01-26T19:31:32.422Z,19.23
2018-01-26T19:33:58.784Z,17.33
2018-01-26T19:36:25.042Z,16.50
2018-01-26T19:38:51.825Z,15.63
2018-01-26T19:41:18.057Z,20.87
2018-01-26T19:43:44.209Z,16.87
2018-01-26T19:46:10.432Z,17.90
2018-01-26T19:48:36.655Z,16.47
2018-01-26T19:51:02.805Z,19.73
2018-01-26T19:53:28.986Z,15.33
2018-01-26T19:55:55.290Z,14.70
2018-01-26T19:58:21.474Z,19.63
2018-01-26T20:00:47.620Z,18.30
2018-01-26T20:03:25.965Z,20.97
2018-01-26T20:05:58.220Z,16.83
2018-01-26T20:08:30.590Z,20.93
2018-01-26T20:10:56.727Z,21.50
2018-01-26T20:13:27.784Z,17.50
2018-01-26T20:15:54.024Z,17.83
2018-01-26T20:18:20.231Z,17.53
2018-01-26T20:20:46.368Z,19.23
2018-01-26T20:23:12.535Z,20.30
2018-01-26T20:25:38.724Z,16.30
2018-01-26T20:28:05.082Z,21.40
2018-01-26T20:30:31.236Z,19.13
2018-01-26T20:32:57.408Z,22.40
2018-01-26T20:35:23.517Z,15.73
2018-01-26T20:37:49.742Z,21.10
2018-01-26T20:40:15.855Z,18.40
2018-01-26T20:42:42.029Z,18.50
2018-01-26T20:45:08.194Z,17.93
2018-01-26T20:47:34.565Z,17.23
2018-01-26T20:50:00.718Z,23.27
2018-01-26T20:52:26.873Z,18.03
2018-01-26T20:54:53.246Z,23.43
2018-01-26T20:57:19.434Z,19.17
2018-01-26T20:59:45.604Z,19.73
2018-01-26T21:02:11.758Z,23.40
2018-01-26T21:04:39.132Z,19.33
2018-01-26T21:07:05.337Z,20.97
2018-01-26T21:09:31.490Z,24.80
2018-01-26T21:11:57.588Z,22.70
2018-01-26T21:14:23.847Z,24.00
2018-01-26T21:16:50.037Z,22.50
2018-01-26T21:19:16.195Z,21.90
2018-01-26T21:21:42.391Z,24.20
2018-01-26T21:24:08.567Z,19.87
2018-01-26T21:26:34.759Z,22.87
2018-01-26T21:29:00.902Z,19.77
2018-01-26T21:31:27.033Z,25.63
2018-01-26T21:33:53.206Z,21.90
2018-01-26T21:36:19.354Z,23.20
2018-01-26T21:38:46.081Z,25.00
2018-01-26T21:41:12.204Z,24.63
2018-01-26T21:43:38.351Z,23.40
2018-01-26T21:46:04.480Z,25.43
2018-01-26T21:48:30.634Z,21.83
2018-01-26T21:50:56.748Z,22.90
2018-01-26T21:53:22.893Z,23.93
2018-01-26T21:55:49.153Z,23.83
2018-01-26T21:58:15.419Z,21.73
2018-01-26T22:00:41.537Z,22.90
2018-01-26T22:03:07.644Z,23.10
2018-01-26T22:05:33.780Z,22.90
2018-01-26T22:07:59.968Z,24.87
2018-01-26T22:10:26.115Z,25.47
2018-01-26T22:12:52.234Z,23.07
2018-01-26T22:15:18.367Z,20.27
2018-01-26T22:17:44.574Z,27.03
2018-01-26T22:20:10.766Z,21.97
2018-01-26T22:22:36.995Z,22.13
2018-01-26T22:25:03.177Z,26.43
2018-01-26T22:27:29.367Z,21.23
2018-01-26T22:29:55.495Z,28.20
2018-01-26T22:32:23.914Z,20.40
2018-01-26T22:34:50.054Z,25.13
2018-01-26T22:37:16.242Z,24.70
2018-01-26T22:39:42.411Z,22.67
2018-01-26T22:42:08.569Z,26.83
2018-01-26T22:44:34.763Z,24.43
2018-01-26T22:47:00.921Z,25.43
2018-01-26T22:49:27.109Z,28.03
2018-01-26T22:51:53.320Z,24.60
2018-01-26T22:54:19.639Z,29.47
2018-01-26T22:56:45.802Z,31.17
2018-01-26T22:59:12.158Z,25.57
2018-01-26T23:01:38.329Z,30.77
2018-01-26T23:04:04.442Z,30.80
2018-01-26T23:06:30.584Z,24.00
2018-01-26T23:08:56.780Z,28.63
2018-01-26T23:11:22.903Z,31.30
2018-01-26T23:13:49.051Z,24.43
2018-01-26T23:16:15.877Z,27.10
2018-01-26T23:18:42.110Z,29.57
2018-01-26T23:21:08.248Z,26.07
2018-01-26T23:23:34.354Z,27.07
2018-01-26T23:26:00.535Z,24.70
2018-01-26T23:28:26.786Z,31.80
2018-01-26T23:30:52.903Z,38.83
2018-01-26T23:33:18.995Z,41.07
2018-01-26T23:35:45.229Z,37.93
2018-01-26T23:38:14.520Z,42.10
2018-01-26T23:40:40.637Z,33.17
2018-01-26T23:43:06.833Z,30.53
2018-01-26T23:45:33.067Z,32.90
2018-01-26T23:47:59.231Z,36.40
2018-01-26T23:50:25.346Z,33.83
2018-01-26T23:52:51.528Z,34.73
2018-01-26T23:55:17.818Z,27.43
2018-01-26T23:57:43.977Z,32.13
